Flight Track Log - Related Links

Times and Time Zones

All times are in EDT time to prevent confusion due to time zone crossing. See the JST671 flight status page for this flight to view local times or setup timezone preferences in your user account.

Time Position Orientation Groundspeed Altitude Reporting Facility
EDT Latitude Longitude Course Direction KTS MPH feet Rate Location/Type
Sun 12:59:21 PM -12.4190 130.8950 108° East 161 185 900  Level FlightAware ADS-B
Sun 12:59:43 PM -12.4250 130.9110 111° Southeast 176 203 1,500 1,179 Climbing FlightAware ADS-B
Sun 01:00:17 PM -12.4350 130.9420 111° Southeast 219 252 2,000 947 Climbing FlightAware ADS-B
Sun 01:00:21 PM -12.4370 130.9481 111° Southeast 200 230 2,100 1,742 Climbing Aus ATC (RADAR)
Sun 01:00:48 PM -12.4450 130.9730 108° East 253 291 2,900 2,400 Climbing FlightAware ADS-B
Sun 01:01:11 PM -12.4580 130.9980 118° Southeast 260 299 4,100 3,073 Climbing FlightAware ADS-B
Sun 01:01:29 PM -12.4790 131.0070 157° South 273 314 5,000 3,200 Climbing FlightAware ADS-B
Sun 01:01:41 PM -12.4960 131.0080 177° South 273 314 5,700 2,919 Climbing FlightAware ADS-B
Sun 01:02:06 PM -12.5220 131.0110 174° South 273 314 6,800 2,604 Climbing FlightAware ADS-B
Sun 01:02:34 PM -12.5630 131.0150 175° South 292 336 8,000 2,483 Climbing FlightAware ADS-B
Sun 01:03:04 PM -12.6010 131.0290 160° South 301 346 9,200 2,273 Climbing FlightAware ADS-B
Sun 01:03:40 PM -12.6410 131.0560 147° Southeast 313 360 10,500 1,429 Climbing FlightAware ADS-B
Sun 01:04:28 PM -12.7060 131.1020 147° Southeast 364 419 11,200 941 Climbing FlightAware ADS-B
Sun 01:04:31 PM -12.7148 131.1077 147° Southeast 338 389 11,300 1,953 Climbing Aus ATC (RADAR)
Sun 01:05:11 PM -12.7680 131.1440 147° Southeast 376 433 12,600 1,800 Climbing FlightAware ADS-B
Sun 01:05:51 PM -12.8260 131.1850 145° Southeast 391 450 13,700 1,463 Climbing FlightAware ADS-B
Sun 01:06:33 PM -12.8920 131.2310 145° Southeast 409 471 14,600 1,333 Climbing FlightAware ADS-B
Sun 01:06:36 PM -12.8996 131.2357 145° Southeast 389 448 14,700 1,250 Climbing Aus ATC (RADAR)
Sun 01:06:57 PM -12.9300 131.2570 146° Southeast 420 483 15,100 1,600 Climbing FlightAware ADS-B
Sun 01:07:36 PM -12.9974 131.3035 146° Southeast 412 474 16,300 1,714 Climbing Aus ATC (RADAR)
Sun 01:07:46 PM -13.0070 131.3110 146° Southeast 429 494 16,500 1,404 Climbing FlightAware ADS-B
Sun 01:08:23 PM -13.0700 131.3540 146° Southeast 436 502 17,400 1,357 Climbing FlightAware ADS-B
Sun 01:09:10 PM -13.1520 131.4110 146° Southeast 447 514 18,400 1,610 Climbing FlightAware ADS-B
Sun 01:09:45 PM -13.2171 131.4566 146° Southeast 434 499 19,600 1,833 Climbing Aus ATC (RADAR)
Sun 01:09:46 PM -13.2150 131.4550 146° Southeast 445 512 19,500 1,125 Descending FlightAware ADS-B
Sun 01:10:33 PM -13.2920 131.5090 146° Southeast 452 520 20,500 1,086 Climbing FlightAware ADS-B
Sun 01:11:31 PM -13.3920 131.5780 146° Southeast 465 535 21,400 1,358 Climbing FlightAware ADS-B
Sun 01:12:19 PM -13.4840 131.6430 146° Southeast 457 526 22,900 1,357 Climbing FlightAware ADS-B
Sun 01:12:55 PM -13.5506 131.6897 146° Southeast 453 521 23,300 667 Climbing Aus ATC (RADAR)
Sun 01:12:55 PM -13.5460 131.6870 146° Southeast 468 539 23,300 293 Level FlightAware ADS-B
Sun 01:13:36 PM -13.6140 131.7340 146° Southeast 482 555 23,500 507 Climbing FlightAware ADS-B
Sun 01:14:06 PM -13.6770 131.7780 146° Southeast 489 563 23,900 880 Climbing FlightAware ADS-B
Sun 01:14:51 PM -13.7660 131.8410 145° Southeast 495 570 24,600 907 Climbing FlightAware ADS-B
Sun 01:15:32 PM -13.8440 131.8950 146° Southeast 498 573 25,200 892 Climbing FlightAware ADS-B
Sun 01:16:05 PM -13.9075 131.9398 146° Southeast 487 560 25,700 1,364 Climbing Aus ATC (RADAR)
Sun 01:16:16 PM -13.9280 131.9540 146° Southeast 494 568 26,200 1,444 Climbing FlightAware ADS-B
Sun 01:16:59 PM -14.0090 132.0110 146° Southeast 494 568 27,000 951 Climbing FlightAware ADS-B
Sun 01:17:38 PM -14.0840 132.0630 146° Southeast 497 572 27,500 1,099 Climbing FlightAware ADS-B
Sun 01:18:10 PM -14.1440 132.1061 146° Southeast 483 556 28,300 1,021 Climbing Aus ATC (RADAR)
Sun 01:18:25 PM -14.1730 132.1260 146° Southeast 497 572 28,300 255 Level FlightAware ADS-B
Sun 01:18:57 PM -14.2340 132.1700 145° Southeast 507 583 28,500 257 Climbing FlightAware ADS-B
Sun 01:19:35 PM -14.3080 132.2220 146° Southeast 520 598 28,600 269 Climbing FlightAware ADS-B
Sun 01:20:04 PM -14.3650 132.2610 146° Southeast 525 604 28,800 462 Climbing FlightAware ADS-B
Sun 01:20:14 PM -14.3886 132.2765 146° Southeast 514 592 28,900 766 Climbing Aus ATC (RADAR)
Sun 01:20:51 PM -14.4610 132.3300 145° Southeast 524 603 29,400 857 Climbing FlightAware ADS-B
Sun 01:21:31 PM -14.5420 132.3870 146° Southeast 522 601 30,000 835 Climbing FlightAware ADS-B
Sun 01:22:10 PM -14.6170 132.4430 144° Southeast 522 601 30,500 857 Climbing FlightAware ADS-B
Sun 01:22:55 PM -14.7060 132.5100 144° Southeast 519 597 31,200 1,037 Climbing FlightAware ADS-B
Sun 01:23:31 PM -14.7760 132.5620 144° Southeast 512 589 31,900 935 Climbing FlightAware ADS-B
Sun 01:24:12 PM -14.8530 132.6200 144° Southeast 513 590 32,400 741 Climbing FlightAware ADS-B
Sun 01:24:52 PM -14.9320 132.6780 145° Southeast 511 588 32,900 500 Climbing FlightAware ADS-B
Sun 01:25:24 PM -14.9930 132.7240 145° Southeast 506 582 33,000 162 Climbing FlightAware ADS-B
Sun 01:25:29 PM -15.0030 132.7319 145° Southeast 494 568 33,000  Level Aus ATC (RADAR)
Sun 01:25:58 PM -15.0570 132.7720 144° Southeast 508 585 33,000  Level FlightAware ADS-B
Sun 01:26:29 PM -15.1175 132.8165 144° Southeast 489 563 33,000  Level Aus ATC (RADAR)
Sun 01:26:39 PM -15.1340 132.8300 144° Southeast 510 587 33,000 203 Level FlightAware ADS-B
Sun 01:27:28 PM -15.2280 132.9000 144° Southeast 509 586 33,200 327 Climbing FlightAware ADS-B
Sun 01:27:34 PM -15.2413 132.9108 144° Southeast 497 572 33,300 391 Climbing Aus ATC (RADAR)
Sun 01:28:14 PM -15.3070 132.9590 144° Southeast 505 581 33,500 156 Climbing FlightAware ADS-B
Sun 01:28:51 PM -15.3660 133.0040 144° Southeast 505 581 33,500 1,011 Level FlightAware ADS-B
Sun 01:29:43 PM -15.4866 133.0937 144° Southeast 490 564 35,000  Climbing Aus ATC (RADAR)
Sun 01:30:04 PM -15.4840 133.0930 144° Southeast 505 581 33,500 -1,579 Descending FlightAware ADS-B
Sun 01:30:40 PM -15.5420 133.1360 144° Southeast 505 581 33,500 2,308 Level FlightAware ADS-B
Sun 01:30:43 PM -15.5981 133.1780 144° Southeast 488 562 35,000  Climbing Aus ATC (RADAR)
Sun 01:31:28 PM -15.6190 133.1940 144° Southeast 505 581 33,500 -1,268 Descending FlightAware ADS-B
Sun 01:31:54 PM -15.6600 133.2260 143° Southeast 505 581 33,500  Level FlightAware ADS-B
Sun 01:32:30 PM -15.7180 133.2700 144° Southeast 505 581 33,500  Level FlightAware ADS-B
Sun 01:33:19 PM -15.7970 133.3290 144° Southeast 505 581 33,500 1,084 Level FlightAware ADS-B
Sun 01:33:53 PM -15.9528 133.4461 144° Southeast 491 565 35,000  Climbing Aus ATC (RADAR)
Sun 01:33:55 PM -15.8550 133.3730 144° Southeast 505 581 33,500 -1,765 Descending FlightAware ADS-B
Sun 01:34:44 PM -15.9340 133.4320 144° Southeast 505 581 33,500  Level FlightAware ADS-B
Sun 01:35:20 PM -15.9910 133.4760 143° Southeast 505 581 33,500 1,233 Level FlightAware ADS-B
Sun 01:35:57 PM -16.1861 133.6231 143° Southeast 493 567 35,000  Climbing Aus ATC (RADAR)
Sun 01:36:07 PM -16.0670 133.5330 143° Southeast 505 581 33,500  Descending FlightAware ADS-B
Sun 01:36:50 PM -16.2820 133.6960 144° Southeast 501 577 35,000 1,023 Climbing FlightAware ADS-B
Sun 01:37:35 PM -16.3590 133.7550 144° Southeast 502 578 35,000  Level FlightAware ADS-B
Sun 01:38:07 PM -16.4289 133.8088 144° Southeast 495 570 35,000  Level Aus ATC (RADAR)
Sun 01:38:23 PM -16.4350 133.8150 144° Southeast 502 578 35,000  Level FlightAware ADS-B
Sun 01:39:00 PM -16.4930 133.8610 143° Southeast 502 578 35,000  Level FlightAware ADS-B
Sun 01:40:12 PM -16.6637 133.9871 143° Southeast 495 570 35,000  Level Aus ATC (RADAR)
Sun 01:40:15 PM -16.6110 133.9540 143° Southeast 502 578 35,000  Level FlightAware ADS-B
Sun 01:40:51 PM -16.6680 133.9980 144° Southeast 502 578 35,000  Level FlightAware ADS-B
Sun 01:41:40 PM -16.7450 134.0590 143° Southeast 502 578 35,000  Level FlightAware ADS-B
Sun 01:42:17 PM -16.8989 134.1661 143° Southeast 497 572 35,000  Level Aus ATC (RADAR)
Sun 01:42:19 PM -16.9010 134.1680 143° Southeast 504 580 35,000  Level FlightAware ADS-B
Sun 01:43:22 PM -17.0210 134.2601 143° Southeast 497 572 35,000  Level Aus ATC (RADAR)
Sun 01:43:37 PM -17.0480 134.2810 143° Southeast 504 580 35,000  Level FlightAware ADS-B
Sun 01:44:20 PM -17.1300 134.3440 144° Southeast 504 580 35,000  Level FlightAware ADS-B
Sun 01:45:01 PM -17.2070 134.4040 143° Southeast 506 582 35,000  Level FlightAware ADS-B
Sun 01:45:45 PM -17.2900 134.4680 144° Southeast 507 583 35,000  Level FlightAware ADS-B
Sun 01:46:25 PM -17.3670 134.5270 144° Southeast 509 586 35,000  Level FlightAware ADS-B
Sun 01:47:08 PM -17.4470 134.5880 144° Southeast 511 588 35,000 158 Level FlightAware ADS-B
Sun 01:47:41 PM -17.5072 134.6466 144° Southeast 503 579 35,200  Climbing Aus ATC (RADAR)
Sun 01:47:47 PM -17.5220 134.6460 144° Southeast 512 589 35,000 -255 Descending FlightAware ADS-B
Sun 01:48:28 PM -17.6000 134.7070 143° Southeast 514 592 35,000  Level FlightAware ADS-B
Sun 01:49:14 PM -17.6880 134.7750 144° Southeast 513 590 35,000  Level FlightAware ADS-B
Sun 01:49:55 PM -17.7680 134.8370 144° Southeast 513 590 35,000  Level FlightAware ADS-B
Sun 01:50:35 PM -17.8360 134.8900 143° Southeast 513 590 35,000  Level FlightAware ADS-B
Sun 01:51:19 PM -17.9270 134.9600 144° Southeast 515 593 35,000  Level FlightAware ADS-B
Sun 01:52:00 PM -18.0060 135.0220 143° Southeast 516 594 35,000  Level FlightAware ADS-B
Sun 01:52:44 PM -18.0900 135.0880 143° Southeast 516 594 35,000  Level FlightAware ADS-B
Sun 01:53:12 PM -18.1420 135.1280 144° Southeast 517 595 35,000  Level FlightAware ADS-B
Sun 01:53:51 PM -18.2922 135.2408 326° Northwest 35,000  Level Aus ATC (Calculated)
Sun 01:53:51 PM -18.2200 135.1890 144° Southeast 518 596 35,000  Level FlightAware ADS-B
Sun 01:54:34 PM -18.3010 135.2530 143° Southeast 518 596 35,000  Level FlightAware ADS-B
Sun 01:55:15 PM -18.3820 135.3160 144° Southeast 519 597 35,000  Level FlightAware ADS-B
Sun 01:55:56 PM -18.4600 135.3770 143° Southeast 520 598 35,000  Level FlightAware ADS-B
Sun 01:56:39 PM -18.5430 135.4430 143° Southeast 520 598 35,000  Level FlightAware ADS-B
Sun 01:57:17 PM -18.6170 135.5000 144° Southeast 520 598 35,000  Level FlightAware ADS-B
Sun 01:57:58 PM -18.6950 135.5610 143° Southeast 520 598 35,000  Level FlightAware ADS-B
Sun 01:58:39 PM -18.7760 135.6250 143° Southeast 522 601 35,000  Level FlightAware ADS-B
Sun 01:58:50 PM -18.9338 135.7469 324° Northwest 35,000  Level Aus ATC (Calculated)
Sun 01:59:19 PM -18.8510 135.6840 143° Southeast 523 602 35,000  Level FlightAware ADS-B
Sun 02:00:06 PM -18.9430 135.7570 143° Southeast 524 603 35,000  Level FlightAware ADS-B
Sun 02:00:37 PM -19.0050 135.8060 143° Southeast 524 603 35,000  Level FlightAware ADS-B
Sun 02:01:21 PM -19.0910 135.8740 143° Southeast 525 604 35,000  Level FlightAware ADS-B
Sun 02:02:01 PM -19.1680 135.9360 143° Southeast 525 604 35,000  Level FlightAware ADS-B
Sun 02:02:37 PM -19.2390 135.9910 144° Southeast 527 606 35,000  Level FlightAware ADS-B
Sun 02:03:20 PM -19.3220 136.0570 143° Southeast 527 606 35,000  Level FlightAware ADS-B
Sun 02:03:50 PM -19.5449 136.2335 323° Northwest 35,000  Level Aus ATC (Calculated)
Sun 02:03:59 PM -19.3990 136.1190 143° Southeast 528 608 35,000  Level FlightAware ADS-B
Sun 02:04:35 PM -19.4690 136.1750 143° Southeast 529 609 35,000  Level FlightAware ADS-B
Sun 02:05:16 PM -19.5470 136.2370 143° Southeast 529 609 35,000  Level FlightAware ADS-B
Sun 02:06:03 PM -19.6420 136.3120 143° Southeast 530 610 35,000  Level FlightAware ADS-B
Sun 02:06:42 PM -19.7170 136.3720 143° Southeast 531 611 35,000  Level FlightAware ADS-B
Sun 02:07:26 PM -19.8050 136.4430 143° Southeast 533 613 35,000  Level FlightAware ADS-B
Sun 02:08:07 PM -19.8840 136.5060 143° Southeast 532 612 35,000  Level FlightAware ADS-B
Sun 02:08:23 PM -20.0786 136.6623 323° Northwest 35,000  Level Aus ATC (Calculated)
Sun 02:08:49 PM -19.9680 136.5740 143° Southeast 533 613 35,000  Level FlightAware ADS-B
Sun 02:08:49 PM -20.1167 136.6930 323° Northwest 35,000  Level Aus ATC (Calculated)
Sun 02:09:23 PM -20.0360 136.6280 143° Southeast 535 616 35,000  Level FlightAware ADS-B
Sun 02:10:08 PM -20.1240 136.6990 143° Southeast 536 617 35,000  Level FlightAware ADS-B
Sun 02:10:29 PM -20.3011 136.8417 323° Northwest 35,000  Level Aus ATC (Calculated)
Sun 02:10:47 PM -20.2020 136.7610 143° Southeast 536 617 35,000  Level FlightAware ADS-B
Sun 02:11:31 PM -20.2860 136.8290 143° Southeast 537 618 35,000  Level FlightAware ADS-B
Sun 02:12:02 PM -20.3500 136.8810 143° Southeast 538 619 35,000  Level FlightAware ADS-B
Sun 02:12:23 PM -20.5430 137.0374 323° Northwest 35,000  Level Aus ATC (Calculated)
Sun 02:12:31 PM -20.4050 136.9260 143° Southeast 538 619 35,000  Level FlightAware ADS-B
Sun 02:13:09 PM -20.4830 136.9880 143° Southeast 540 621 35,000  Level FlightAware ADS-B
Sun 02:13:44 PM -20.5530 137.0450 143° Southeast 540 621 35,000  Level FlightAware ADS-B
Sun 02:14:23 PM -20.6280 137.1060 143° Southeast 540 621 35,000  Level FlightAware ADS-B
Sun 02:15:08 PM -20.7200 137.1810 143° Southeast 542 624 35,000  Level FlightAware ADS-B
Sun 02:15:29 PM -20.9355 137.3567 322° Northwest 35,000  Level Aus ATC (Calculated)
Sun 02:15:49 PM -20.8020 137.2470 143° Southeast 542 624 35,000  Level FlightAware ADS-B
Sun 02:16:31 PM -20.8860 137.3160 143° Southeast 543 625 35,000  Level FlightAware ADS-B
Sun 02:17:09 PM -20.9630 137.3790 143° Southeast 545 627 35,000  Level FlightAware ADS-B
Sun 02:17:52 PM -21.0480 137.4480 143° Southeast 545 627 35,000  Level FlightAware ADS-B
Sun 02:18:37 PM -21.1390 137.5230 142° Southeast 546 628 35,000  Level FlightAware ADS-B
Sun 02:19:17 PM -21.2180 137.5880 143° Southeast 546 628 35,000  Level FlightAware ADS-B
Sun 02:19:41 PM -21.4253 137.7581 322° Northwest 35,000  Level Aus ATC (Calculated)
Sun 02:20:01 PM -21.3080 137.6610 143° Southeast 547 629 35,000  Level FlightAware ADS-B
Sun 02:20:28 PM -21.5068 137.8253 322° Northwest 35,000  Level Aus ATC (Calculated)
Sun 02:20:39 PM -21.3840 137.7240 143° Southeast 548 631 35,000  Level FlightAware ADS-B
Sun 02:21:23 PM -21.4740 137.7980 143° Southeast 550 633 35,000  Level FlightAware ADS-B
Sun 02:22:06 PM -21.5600 137.8690 142° Southeast 551 634 35,000  Level FlightAware ADS-B
Sun 02:22:23 PM -21.7657 138.0412 322° Northwest 35,000  Level Aus ATC (Calculated)
Sun 02:22:47 PM -21.6420 137.9370 142° Southeast 553 636 35,000  Level FlightAware ADS-B
Sun 02:23:22 PM -21.7120 137.9960 142° Southeast 554 638 35,000  Level FlightAware ADS-B
Sun 02:23:55 PM -21.7810 138.0540 142° Southeast 555 639 35,000  Level FlightAware ADS-B
Sun 02:24:34 PM -21.8590 138.1190 142° Southeast 556 640 35,000  Level FlightAware ADS-B
Sun 02:25:11 PM -21.9350 138.1830 142° Southeast 558 642 35,000  Level FlightAware ADS-B
Sun 02:25:15 PM -22.1200 138.3395 322° Northwest 35,000  Level Aus ATC (Calculated)
Sun 02:25:51 PM -22.0170 138.2520 142° Southeast 558 642 35,000  Level FlightAware ADS-B
Sun 02:26:34 PM -22.1030 138.3250 142° Southeast 560 644 35,000  Level FlightAware ADS-B
Sun 02:27:10 PM -22.1780 138.3880 142° Southeast 560 644 35,000  Level FlightAware ADS-B
Sun 02:27:17 PM -22.3560 138.5393 322° Northwest 35,000  Level Aus ATC (Calculated)
Sun 02:27:17 PM -22.3560 138.5393 322° Northwest 35,000  Level Aus ATC (Calculated)
Sun 02:27:53 PM -22.2670 138.4630 142° Southeast 561 646 35,000  Level FlightAware ADS-B
Sun 02:28:30 PM -22.3410 138.5260 142° Southeast 562 647 35,000  Level FlightAware ADS-B
Sun 02:29:11 PM -22.4240 138.5970 142° Southeast 562 647 35,000  Level FlightAware ADS-B
Sun 02:29:51 PM -22.5050 138.6650 142° Southeast 560 644 35,000  Level FlightAware ADS-B
Sun 02:30:24 PM -22.5740 138.7240 142° Southeast 560 644 35,000  Level FlightAware ADS-B
Sun 02:31:19 PM -22.6870 138.8200 142° Southeast 560 644 35,000  Level FlightAware ADS-B
Sun 02:32:02 PM -22.7740 138.8950 142° Southeast 561 646 35,000  Level FlightAware ADS-B
Sun 02:32:47 PM -22.8670 138.9750 142° Southeast 562 647 35,000  Level FlightAware ADS-B
Sun 02:32:56 PM -23.0622 139.1426 321° Northwest 35,000  Level Aus ATC (Calculated)
Sun 02:33:27 PM -22.9470 139.0430 142° Southeast 561 646 35,000  Level FlightAware ADS-B
Sun 02:34:01 PM -23.0180 139.1040 142° Southeast 562 647 35,000  Level FlightAware ADS-B
Sun 02:34:36 PM -23.0870 139.1630 142° Southeast 562 647 35,000  Level FlightAware ADS-B
Sun 02:35:14 PM -23.1650 139.2310 141° Southeast 562 647 35,000  Level FlightAware ADS-B
Sun 02:35:22 PM -23.4144 139.4466 321° Northwest 35,000  Level Aus ATC (Calculated)
Sun 02:36:01 PM -23.2620 139.3140 142° Southeast 562 647 35,000  Level FlightAware ADS-B
Sun 02:36:50 PM -23.3520 139.3930 142° Southeast 561 646 35,000  Level FlightAware ADS-B
Sun 02:36:56 PM -23.5903 139.5992 322° Northwest 35,000  Level Aus ATC (Calculated)
Sun 02:37:26 PM -23.4130 139.4470 142° Southeast 561 646 35,000  Level FlightAware ADS-B
Sun 02:38:14 PM -23.5320 139.5480 142° Southeast 564 649 35,000  Level FlightAware ADS-B
Sun 02:38:57 PM -23.6210 139.6250 142° Southeast 564 649 35,000  Level FlightAware ADS-B
Sun 02:39:38 PM -23.7040 139.6980 141° Southeast 566 651 35,000  Level FlightAware ADS-B
Sun 02:40:16 PM -24.0001 139.9568 321° Northwest 35,000  Level Aus ATC (Calculated)
Sun 02:40:31 PM -23.8140 139.7940 141° Southeast 566 651 35,000  Level FlightAware ADS-B
Sun 02:41:09 PM -23.8800 139.8520 141° Southeast 566 651 35,000  Level FlightAware ADS-B
Sun 02:41:51 PM -23.9700 139.9310 141° Southeast 566 651 35,000  Level FlightAware ADS-B
Sun 02:42:28 PM -24.0340 139.9870 141° Southeast 566 651 35,000  Level FlightAware ADS-B
Sun 02:43:16 PM -24.1170 140.0610 141° Southeast 566 651 35,000  Level FlightAware ADS-B
Sun 02:43:52 PM -24.1790 140.1160 141° Southeast 566 651 35,000  Level FlightAware ADS-B
Sun 02:44:26 PM -24.2380 140.1690 141° Southeast 566 651 35,000  Level FlightAware ADS-B
Sun 02:45:03 PM -24.3020 140.2250 141° Southeast 566 651 35,000  Level FlightAware ADS-B
Sun 02:45:15 PM -24.6423 140.5234 321° Northwest 35,000  Level Aus ATC (Calculated)
Sun 02:45:43 PM -24.4530 140.3550 141° Southeast 573 659 35,000  Level FlightAware ADS-B
Sun 02:46:47 PM -24.5690 140.4600 141° Southeast 574 661 35,000  Level FlightAware ADS-B
Sun 02:47:43 PM -24.6920 140.5690 141° Southeast 575 662 35,000  Level FlightAware ADS-B
Sun 02:48:17 PM -24.7690 140.6360 142° Southeast 577 664 35,000  Level FlightAware ADS-B
Sun 02:49:09 PM -24.8600 140.7190 140° Southeast 577 664 35,000  Level FlightAware ADS-B
Sun 02:50:10 PM -24.9660 140.8180 140° Southeast 577 664 35,000  Level FlightAware ADS-B
Sun 02:50:46 PM -25.0280 140.8750 140° Southeast 577 664 35,000  Level FlightAware ADS-B
Sun 02:50:52 PM -25.3403 141.1481 322° Northwest 35,000  Level Aus ATC (Calculated)
Sun 02:51:34 PM -25.1120 140.9530 140° Southeast 577 664 35,000  Level FlightAware ADS-B
Sun 02:52:10 PM -25.1740 141.0110 140° Southeast 577 664 35,000  Level FlightAware ADS-B
Sun 02:52:55 PM -25.5715 141.3572 322° Northwest 35,000  Level Aus ATC (Calculated)
Sun 02:52:59 PM -25.2590 141.0900 140° Southeast 577 664 35,000  Level FlightAware ADS-B
Sun 02:53:48 PM -25.3440 141.1690 140° Southeast 577 664 35,000  Level FlightAware ADS-B
Sun 02:53:48 PM -25.6870 141.4620 323° Northwest 35,000  Level Aus ATC (Calculated)
Sun 02:54:24 PM -25.4070 141.2270 140° Southeast 577 664 35,000  Level FlightAware ADS-B
Sun 02:55:13 PM -25.4920 141.3060 140° Southeast 577 664 35,000  Level FlightAware ADS-B
Sun 02:55:49 PM -25.5550 141.3640 140° Southeast 577 664 35,000  Level FlightAware ADS-B
Sun 02:56:33 PM -25.8050 141.5690 144° Southeast 583 671 35,000  Level FlightAware ADS-B
Sun 02:57:14 PM -25.8770 141.6360 140° Southeast 583 671 35,000  Level FlightAware ADS-B
Sun 02:57:49 PM -25.9600 141.7100 141° Southeast 584 672 35,000  Level FlightAware ADS-B
Sun 02:57:49 PM -26.2632 141.9892 320° Northwest 35,000  Level Aus ATC (Calculated)
Sun 02:58:40 PM -26.0690 141.8100 141° Southeast 586 674 35,000  Level FlightAware ADS-B
Sun 02:59:27 PM -26.1680 141.9010 140° Southeast 587 676 35,000  Level FlightAware ADS-B
Sun 03:00:13 PM -26.2630 141.9880 141° Southeast 587 676 35,000  Level FlightAware ADS-B
Sun 03:00:42 PM -26.3240 142.0450 140° Southeast 587 676 35,000  Level FlightAware ADS-B
Sun 03:01:21 PM -26.4070 142.1210 141° Southeast 587 676 35,000  Level FlightAware ADS-B
Sun 03:02:15 PM -26.5210 142.2270 140° Southeast 588 677 35,000  Level FlightAware ADS-B
Sun 03:02:49 PM -26.8948 142.5751 320° Northwest 35,000  Level Aus ATC (Calculated)
Sun 03:02:52 PM -26.5850 142.2870 140° Southeast 588 677 35,000  Level FlightAware ADS-B
Sun 03:03:26 PM -26.6660 142.3610 141° Southeast 589 678 35,000  Level FlightAware ADS-B
Sun 03:04:25 PM -26.7910 142.4780 140° Southeast 590 679 35,000  Level FlightAware ADS-B
Sun 03:05:00 PM -27.1810 142.8436 320° Northwest 35,000  Level Aus ATC (Calculated)
Sun 03:05:02 PM -26.8610 142.5430 140° Southeast 591 680 35,000  Level FlightAware ADS-B
Sun 03:06:03 PM -26.9700 142.6450 140° Southeast 591 680 35,000  Level FlightAware ADS-B
Sun 03:06:05 PM -27.2953 142.9513 320° Northwest 35,000  Level Aus ATC (Calculated)
Sun 03:06:39 PM -27.0340 142.7060 140° Southeast 591 680 35,000  Level FlightAware ADS-B
Sun 03:07:27 PM -27.1190 142.7860 140° Southeast 591 680 35,000  Level FlightAware ADS-B
Sun 03:07:53 PM -27.5808 143.2217 320° Northwest 35,000  Level Aus ATC (Calculated)
Sun 03:08:05 PM -27.1870 142.8500 140° Southeast 591 680 35,000  Level FlightAware ADS-B
Sun 03:08:42 PM -27.2530 142.9120 140° Southeast 591 680 35,000  Level FlightAware ADS-B
Sun 03:09:31 PM -27.3400 142.9950 140° Southeast 591 680 35,000  Level FlightAware ADS-B
Sun 03:10:19 PM -27.4250 143.0750 140° Southeast 591 680 35,000  Level FlightAware ADS-B
Sun 03:10:55 PM -27.4890 143.1360 140° Southeast 591 680 35,000  Level FlightAware ADS-B
Sun 03:11:41 PM -27.5710 143.2140 140° Southeast 591 680 35,000  Level FlightAware ADS-B
Sun 03:12:29 PM -27.6570 143.2950 140° Southeast 591 680 35,000  Level FlightAware ADS-B
Sun 03:12:52 PM -28.2070 143.8215 320° Northwest 35,000  Level Aus ATC (Calculated)
Sun 03:13:05 PM -27.7210 143.3550 140° Southeast 591 680 35,000  Level FlightAware ADS-B
Sun 03:13:54 PM -27.8080 143.4380 140° Southeast 591 680 35,000  Level FlightAware ADS-B
Sun 03:14:32 PM -27.8760 143.5020 140° Southeast 591 680 35,000 Level FlightAware ADS-B
Sun 03:17:00 PM -28.1656 143.7806 140° Southeast  Level FlightAware Approximate
Sun 03:17:52 PM -28.8305 144.4283 139° Southeast 35,000  Level Aus ATC (Calculated)
Sun 03:18:59 PM -29.0000 144.5950 139° Southeast 35,000 10 Level Aus ATC (Calculated)
Sun 03:19:00 PM -28.9628 144.5583 139° Southeast  Level FlightAware Approximate
Sun 03:20:00 PM -28.9999 144.4150 270° West  Level FlightAware Approximate
Sun 03:21:00 PM -29.0000 144.5921 90° East  Level FlightAware Approximate
Sun 03:21:01 PM -29.2415 144.8331 139° Southeast 35,000  Level Aus ATC (Calculated)
Sun 03:22:05 PM -29.4022 144.9925 139° Southeast 35,000 12 Level Aus ATC (Calculated)
Sun 03:24:00 PM -29.1776 144.7700 319° Northwest  Level FlightAware Approximate
Sun 03:25:00 PM -29.0603 144.6543 319° Northwest  Level FlightAware Approximate
Sun 03:26:00 PM -28.9429 144.5389 319° Northwest  Level FlightAware Approximate
Sun 03:27:00 PM -29.0488 144.6681 139° Southeast  Level Estimated
Sun 03:27:00 PM -30.0432 145.6351 139° Southeast 35,000  Level Aus ATC (Calculated)
Sun 03:27:00 PM -30.0432 145.6351 139° Southeast 35,000 18 Level Aus ATC (Calculated)
Sun 03:28:00 PM -30.1596 145.7531 139° Southeast  Level FlightAware Approximate
Sun 03:29:00 PM -30.2760 145.8713 139° Southeast  Level FlightAware Approximate
Sun 03:30:00 PM -30.3922 145.9898 139° Southeast  Level FlightAware Approximate
Sun 03:31:00 PM -30.5084 146.1087 139° Southeast  Level FlightAware Approximate
Sun 03:31:59 PM -30.6809 146.2859 139° Southeast 35,000  Level Aus ATC (Calculated)
Sun 03:32:00 PM -30.6244 146.2278 139° Southeast  Level FlightAware Approximate
Sun 03:33:00 PM -30.7987 146.4074 138° Southeast  Level FlightAware Approximate
Sun 03:34:00 PM -30.9144 146.5272 138° Southeast  Level FlightAware Approximate
Sun 03:35:00 PM -31.0301 146.6474 138° Southeast  Level FlightAware Approximate
Sun 03:35:34 PM -31.1174 146.7383 318° Northwest 35,000  Level Aus ATC (Calculated)
Sun 03:36:00 PM -31.1456 146.7678 138° Southeast  Level FlightAware Approximate
Sun 03:36:34 PM -31.2361 146.8624 318° Northwest 35,000  Level Aus ATC (Calculated)
Sun 03:37:00 PM -31.2828 146.9113 138° Southeast  Level FlightAware Approximate
Sun 03:38:00 PM -31.4014 147.0358 138° Southeast  Level FlightAware Approximate
Sun 03:38:14 PM -31.0195 146.6358 138° Southeast 601 692 35,200  Level Aus ATC (RADAR)
Sun 03:39:08 PM -31.1314 146.7538 138° Southeast 594 684 35,200  Level Aus ATC (RADAR)
Sun 03:40:08 PM -31.2548 146.8827 138° Southeast 595 685 35,200 -148 Level Aus ATC (RADAR)
Sun 03:40:29 PM -31.2910 146.9190 138° Southeast 591 680 35,000 -218 Descending FlightAware ADS-B
Sun 03:41:03 PM -31.3640 146.9960 138° Southeast 591 680 35,000  Level FlightAware ADS-B
Sun 03:41:49 PM -31.4570 147.0940 138° Southeast 591 680 35,000  Level FlightAware ADS-B
Sun 03:42:30 PM -31.5410 147.1760 140° Southeast 585 673 35,000  Level FlightAware ADS-B
Sun 03:43:04 PM -31.6210 147.2380 147° Southeast 582 670 35,000  Level FlightAware ADS-B
Sun 03:43:43 PM -31.7120 147.2980 151° Southeast 572 658 35,000  Level FlightAware ADS-B
Sun 03:44:18 PM -31.7950 147.3520 151° Southeast 573 659 35,000 300 Level FlightAware ADS-B
Sun 03:44:23 PM -31.8118 147.3623 151° Southeast 579 666 35,200  Climbing Aus ATC (RADAR)
Sun 03:45:03 PM -31.9020 147.4220 151° Southeast 573 659 35,000 -158 Descending FlightAware ADS-B
Sun 03:45:39 PM -31.9860 147.4770 151° Southeast 572 658 35,000  Level FlightAware ADS-B
Sun 03:46:18 PM -32.0790 147.5380 151° Southeast 570 656 35,000  Level FlightAware ADS-B
Sun 03:47:03 PM -32.1840 147.6070 151° Southeast 569 655 35,000  Level FlightAware ADS-B
Sun 03:47:43 PM -32.2790 147.6690 151° Southeast 575 662 35,000  Level FlightAware ADS-B
Sun 03:48:23 PM -32.3700 147.7300 150° Southeast 574 661 35,000 86 Level FlightAware ADS-B
Sun 03:48:53 PM -32.4398 147.7754 150° Southeast 572 658 35,100  Climbing Aus ATC (RADAR)
Sun 03:49:04 PM -32.4640 147.7910 150° Southeast 574 661 35,000  Descending FlightAware ADS-B
Sun 03:49:38 PM -32.5438 147.8445 150° Southeast 571 657 35,100  Climbing Aus ATC (RADAR)
Sun 03:49:48 PM -32.5680 147.8610 150° Southeast 574 661 35,000 -130 Descending FlightAware ADS-B
Sun 03:50:24 PM -32.6500 147.9150 151° Southeast 575 662 35,000  Level FlightAware ADS-B
Sun 03:51:08 PM -32.7540 147.9840 151° Southeast 576 663 35,000  Level FlightAware ADS-B
Sun 03:51:48 PM -32.8460 148.0460 151° Southeast 576 663 35,000 273 Level FlightAware ADS-B
Sun 03:51:52 PM -32.8573 148.0534 151° Southeast 575 662 35,200  Climbing Aus ATC (RADAR)
Sun 03:52:33 PM -32.9520 148.1170 151° Southeast 576 663 35,000 -140 Descending FlightAware ADS-B
Sun 03:53:18 PM -33.0550 148.1860 151° Southeast 576 663 35,000 71 Level FlightAware ADS-B
Sun 03:53:57 PM -33.1470 148.2492 151° Southeast 577 664 35,100  Climbing Aus ATC (RADAR)
Sun 03:53:59 PM -33.1500 148.2520 151° Southeast 578 665 35,000 -146 Descending FlightAware ADS-B
Sun 03:54:38 PM -33.2380 148.3250 145° Southeast 587 676 35,000  Level FlightAware ADS-B
Sun 03:55:19 PM -33.3280 148.4000 145° Southeast 588 677 35,000  Level FlightAware ADS-B
Sun 03:55:58 PM -33.4160 148.4740 145° Southeast 590 679 35,000  Level FlightAware ADS-B
Sun 03:56:43 PM -33.5160 148.5570 145° Southeast 590 679 35,000  Level FlightAware ADS-B
Sun 03:57:13 PM -33.5840 148.6150 145° Southeast 590 679 35,000  Level FlightAware ADS-B
Sun 03:57:53 PM -33.6730 148.6890 145° Southeast 590 679 35,000  Level FlightAware ADS-B
Sun 03:58:28 PM -33.7520 148.7560 145° Southeast 590 679 35,000  Level FlightAware ADS-B
Sun 03:59:09 PM -33.8400 148.8300 145° Southeast 589 678 35,000 245 Level FlightAware ADS-B
Sun 03:59:17 PM -33.8607 148.8479 145° Southeast 585 673 35,200  Climbing Aus ATC (RADAR)
Sun 03:59:55 PM -33.9420 148.9170 145° Southeast 589 678 35,000 -1,098 Descending FlightAware ADS-B
Sun 04:00:39 PM -34.0420 149.0020 145° Southeast 588 677 33,700 -1,835 Descending FlightAware ADS-B
Sun 04:01:20 PM -34.1330 149.0790 145° Southeast 574 661 32,400 -1,857 Descending FlightAware ADS-B
Sun 04:01:21 PM -34.1377 149.0835 145° Southeast 577 664 32,400 -2,000 Level Aus ATC (RADAR)
Sun 04:01:59 PM -34.2190 149.1550 144° Southeast 575 662 31,100 -1,952 Descending FlightAware ADS-B
Sun 04:02:44 PM -34.3040 149.2530 136° Southeast 568 654 29,700 -1,856 Descending FlightAware ADS-B
Sun 04:03:36 PM -34.3856 149.3876 136° Southeast 555 639 28,100 -2,036 Descending Aus ATC (RADAR)
Sun 04:03:40 PM -34.3890 149.3960 136° Southeast 559 643 27,800 -2,204 Descending FlightAware ADS-B
Sun 04:04:25 PM -34.4380 149.5220 115° Southeast 539 620 26,300 -1,923 Descending FlightAware ADS-B
Sun 04:04:58 PM -34.4610 149.6160 107° East 519 597 25,300 -2,053 Descending FlightAware ADS-B
Sun 04:05:41 PM -34.4789 149.7389 107° East 494 568 23,700 -2,455 Descending Aus ATC (RADAR)
Sun 04:05:42 PM -34.4790 149.7420 107° East 502 578 23,500 -1,959 Descending FlightAware ADS-B
Sun 04:06:30 PM -34.4790 149.8680 90° East 474 545 22,100 -1,898 Descending FlightAware ADS-B
Sun 04:07:20 PM -34.4600 149.9930 80° East 447 514 20,400 -2,067 Descending FlightAware ADS-B
Sun 04:08:00 PM -34.4310 150.0890 70° East 425 489 19,000 -1,976 Descending FlightAware ADS-B
Sun 04:08:45 PM -34.3910 150.1820 62° Northeast 406 467 17,600 -1,835 Descending FlightAware ADS-B
Sun 04:09:25 PM -34.3570 150.2590 62° Northeast 395 455 16,400 -1,768 Descending FlightAware ADS-B
Sun 04:10:20 PM -34.3120 150.3610 62° Northeast 378 435 14,800 -1,642 Descending FlightAware ADS-B
Sun 04:11:00 PM -34.2764 150.4395 62° Northeast 362 417 13,800 -1,663 Descending Aus ATC (RADAR)
Sun 04:11:43 PM -34.2440 150.5120 62° Northeast 355 409 12,500 -1,724 Descending FlightAware ADS-B
Sun 04:12:27 PM -34.2100 150.5890 62° Northeast 346 398 11,300 -1,558 Descending FlightAware ADS-B
Sun 04:13:00 PM -34.1831 150.6486 62° Northeast 336 387 10,500 -1,650 Descending Aus ATC (RADAR)
Sun 04:13:07 PM -34.1790 150.6590 62° Northeast 337 388 10,200 -1,000 Descending FlightAware ADS-B
Sun 04:13:42 PM -34.1540 150.7140 61° Northeast 314 361 9,800 -1,091 Descending FlightAware ADS-B
Sun 04:14:13 PM -34.1320 150.7610 61° Northeast 313 360 9,000 -1,500 Descending FlightAware ADS-B
Sun 04:14:38 PM -34.1150 150.8000 62° Northeast 312 359 8,400 -1,111 Descending FlightAware ADS-B
Sun 04:15:07 PM -34.0960 150.8440 62° Northeast 302 348 8,000 -700 Descending FlightAware ADS-B
Sun 04:15:38 PM -34.0750 150.8910 62° Northeast 306 352 7,700 -545 Descending FlightAware ADS-B
Sun 04:16:02 PM -34.0590 150.9270 62° Northeast 305 351 7,500 -462 Descending FlightAware ADS-B
Sun 04:16:17 PM -34.0490 150.9500 62° Northeast 306 352 7,400 -439 Descending FlightAware ADS-B
Sun 04:16:43 PM -34.0310 150.9880 60° Northeast 306 352 7,200 -480 Descending FlightAware ADS-B
Sun 04:17:07 PM -34.0160 151.0200 61° Northeast 297 342 7,000 -545 Descending FlightAware ADS-B
Sun 04:17:38 PM -33.9990 151.0700 68° East 301 346 6,700 -536 Descending FlightAware ADS-B
Sun 04:18:03 PM -34.0040 151.1120 98° East 313 360 6,500 -316 Descending FlightAware ADS-B
Sun 04:18:35 PM -34.0144 151.1695 98° East 298 343 6,400 -514 Descending Aus ATC (RADAR)
Sun 04:18:38 PM -34.0150 151.1700 98° East 297 342 6,200 -1,941 Descending FlightAware ADS-B
Sun 04:19:09 PM -34.0240 151.2220 102° East 294 338 5,300 -1,529 Descending FlightAware ADS-B
Sun 04:19:29 PM -34.0290 151.2540 101° East 291 335 4,900 -1,472 Descending FlightAware ADS-B
Sun 04:20:02 PM -34.0450 151.3020 112° Southeast 282 325 4,000 -1,615 Descending FlightAware ADS-B
Sun 04:20:21 PM -34.0630 151.3240 135° Southeast 280 322 3,500 -1,543 Descending FlightAware ADS-B
Sun 04:20:37 PM -34.0770 151.3370 142° Southeast 275 316 3,100 -1,125 Descending FlightAware ADS-B
Sun 04:20:53 PM -34.0950 151.3410 170° South 266 306 2,900 -300 Descending FlightAware ADS-B
Sun 04:21:17 PM -34.1180 151.3240 211° Southwest 213 245 2,900  Level FlightAware ADS-B
Sun 04:21:32 PM -34.1240 151.3080 246° West 207 238 2,900  Level FlightAware ADS-B
Sun 04:21:47 PM -34.1270 151.2910 258° West 197 227 2,900  Level FlightAware ADS-B
Sun 04:21:57 PM -34.1240 151.2800 288° West 194 223 2,900 -462 Level FlightAware ADS-B
Sun 04:22:13 PM -34.1150 151.2690 315° West 192 221 2,700 -783 Descending FlightAware ADS-B
Sun 04:22:43 PM -34.0950 151.2450 315° West 183 211 2,300 -643 Descending FlightAware ADS-B
Sun 04:23:09 PM -34.0800 151.2270 315° West 177 204 2,100 -571 Descending FlightAware ADS-B
Sun 04:23:25 PM -34.0690 151.2200 332° Northwest 167 192 1,900 -800 Descending FlightAware ADS-B
Sun 04:23:39 PM -34.0570 151.2160 345° North 168 193 1,700 -955 Descending FlightAware ADS-B
Sun 04:24:09 PM -34.0360 151.2110 349° North 137 158 1,200 -873 Descending FlightAware ADS-B
Sun 04:24:34 PM -34.0210 151.2070 348° North 119 137 900 -655 Descending FlightAware ADS-B
Sun 04:25:04 PM -34.0030 151.2020 347° North 116 133 600 -655 Descending FlightAware ADS-B
Sun 04:25:29 PM -33.9890 151.1990 347° North 116 133 300 -400 Descending FlightAware ADS-B
Sun 04:25:34 PM -33.9863 151.1979 347° North 124 143 400 1,200 Climbing Aus ATC (RADAR)
Sun 04:25:55 PM -33.9760 151.1950 346° North 119 137 -1,143 Descending FlightAware ADS-B

Login

Don't have an account? Register now (free) for customized features, flight alerts, and more!